createdAt,value
2018-03-18T00:00:07.301Z,-10.17
2018-03-18T00:01:17.293Z,-10.23
2018-03-18T00:02:27.277Z,-10.1
2018-03-18T00:03:37.005Z,-10.05
2018-03-18T00:04:46.727Z,-10.17
2018-03-18T00:05:55.912Z,-10.06
2018-03-18T00:07:05.368Z,-10.09
2018-03-18T00:08:15.089Z,-10.09
2018-03-18T00:09:25.079Z,-10.14
2018-03-18T00:10:35.063Z,-10.17
2018-03-18T00:11:44.778Z,-10.2
2018-03-18T00:12:54.765Z,-10.2
2018-03-18T00:14:04.856Z,-10.18
2018-03-18T00:15:14.843Z,-10.23
2018-03-18T00:16:24.830Z,-10.25
2018-03-18T00:17:34.813Z,-10.24
2018-03-18T00:18:44.807Z,-10.28
2018-03-18T00:19:54.796Z,-10.25
2018-03-18T00:21:04.510Z,-10.42
2018-03-18T00:22:13.965Z,-10.53
2018-03-18T00:23:23.956Z,-10.49
2018-03-18T00:24:33.676Z,-10.49
2018-03-18T00:25:43.671Z,-10.57
2018-03-18T00:26:53.661Z,-10.57
2018-03-18T00:28:03.382Z,-10.59
2018-03-18T00:29:13.383Z,-10.59
2018-03-18T00:30:23.379Z,-10.62
2018-03-18T00:31:33.102Z,-10.6
2018-03-18T00:32:43.098Z,-10.73
2018-03-18T00:33:52.831Z,-10.71
2018-03-18T00:35:02.824Z,-10.77
2018-03-18T00:36:12.815Z,-10.8
2018-03-18T00:37:22.794Z,-10.87
2018-03-18T00:38:32.513Z,-10.76
2018-03-18T00:39:42.499Z,-10.83
2018-03-18T00:40:52.496Z,-10.85
2018-03-18T00:42:02.484Z,-10.8
2018-03-18T00:43:12.198Z,-10.8
2018-03-18T00:44:22.238Z,-10.76
2018-03-18T00:45:31.964Z,-10.73
2018-03-18T00:46:41.949Z,-10.66
2018-03-18T00:47:51.934Z,-10.62
2018-03-18T00:49:01.947Z,-10.63
2018-03-18T00:50:11.666Z,-10.65
2018-03-18T00:51:21.119Z,-10.66
2018-03-18T00:52:31.103Z,-10.69
2018-03-18T00:53:40.559Z,-10.66
2018-03-18T00:54:50.547Z,-10.6
2018-03-18T00:56:00.006Z,-10.69
2018-03-18T00:57:09.205Z,-10.71
2018-03-18T00:58:19.191Z,-10.56
2018-03-18T00:59:28.904Z,-10.59
2018-03-18T01:00:38.893Z,-10.62
2018-03-18T01:01:48.886Z,-10.63
2018-03-18T01:02:58.866Z,-10.59
2018-03-18T01:04:08.853Z,-10.46
2018-03-18T01:05:18.914Z,-10.59
2018-03-18T01:06:28.912Z,-10.59
2018-03-18T01:07:38.897Z,-10.57
2018-03-18T01:08:48.939Z,-10.44
2018-03-18T01:09:58.939Z,-10.52
2018-03-18T01:11:08.936Z,-10.48
2018-03-18T01:12:18.930Z,-10.6
2018-03-18T01:13:28.645Z,-10.56
2018-03-18T01:14:38.631Z,-10.49
2018-03-18T01:15:48.621Z,-10.53
2018-03-18T01:16:58.606Z,-10.57
2018-03-18T01:18:08.325Z,-10.6
2018-03-18T01:19:18.313Z,-10.6
2018-03-18T01:20:28.033Z,-10.73
2018-03-18T01:21:38.024Z,-10.71
2018-03-18T01:22:48.022Z,-10.76
2018-03-18T01:23:57.734Z,-10.77
2018-03-18T01:25:07.727Z,-10.83
2018-03-18T01:26:17.444Z,-10.66
2018-03-18T01:27:27.428Z,-10.56
2018-03-18T01:28:37.414Z,-10.6
2018-03-18T01:29:47.184Z,-10.63
2018-03-18T01:30:57.168Z,-10.55
2018-03-18T01:32:06.887Z,-10.49
2018-03-18T01:33:16.889Z,-10.57
2018-03-18T01:34:26.610Z,-10.66
2018-03-18T01:35:36.331Z,-10.83
2018-03-18T01:36:46.310Z,-10.8
2018-03-18T01:37:56.042Z,-10.81
2018-03-18T01:39:05.771Z,-11
2018-03-18T01:40:15.274Z,-11.02
2018-03-18T01:41:25.257Z,-11.37
2018-03-18T01:42:35.253Z,-11.5
2018-03-18T01:43:45.240Z,-11.5
2018-03-18T01:44:55.232Z,-11.58
2018-03-18T01:46:05.223Z,-11.55
2018-03-18T01:47:15.316Z,-11.49
2018-03-18T01:48:25.303Z,-11.55
2018-03-18T01:49:35.291Z,-11.5
2018-03-18T01:50:45.274Z,-11.62
2018-03-18T01:51:55.260Z,-11.52
2018-03-18T01:53:04.705Z,-11.5
2018-03-18T01:54:14.685Z,-11.45
2018-03-18T01:55:24.701Z,-11.49
2018-03-18T01:56:34.151Z,-11.48
2018-03-18T01:57:43.870Z,-11.31
2018-03-18T01:58:53.322Z,-11.35
2018-03-18T02:00:03.310Z,-11.39
2018-03-18T02:01:13.036Z,-11.5
2018-03-18T02:02:23.018Z,-11.42
2018-03-18T02:03:33.009Z,-11.45
2018-03-18T02:04:42.721Z,-11.42
2018-03-18T02:05:52.711Z,-11.37
2018-03-18T02:07:02.700Z,-11.45
2018-03-18T02:08:12.683Z,-11.44
2018-03-18T02:09:22.666Z,-11.41
2018-03-18T02:10:32.673Z,-11.34
2018-03-18T02:11:42.658Z,-11.32
2018-03-18T02:12:52.378Z,-11.34
2018-03-18T02:14:02.363Z,-11.24
2018-03-18T02:15:12.349Z,-11.11
2018-03-18T02:16:22.330Z,-11.07
2018-03-18T02:17:32.311Z,-11.02
2018-03-18T02:18:42.299Z,-11.06
2018-03-18T02:19:51.751Z,-10.99
2018-03-18T02:21:01.471Z,-11
2018-03-18T02:22:11.189Z,-11.02
2018-03-18T02:23:21.183Z,-11.05
2018-03-18T02:24:30.365Z,-11.02
2018-03-18T02:25:40.347Z,-11.06
2018-03-18T02:26:50.330Z,-11.03
2018-03-18T02:28:00.074Z,-11.14
2018-03-18T02:29:10.070Z,-11.13
2018-03-18T02:30:20.060Z,-11.23
2018-03-18T02:31:30.083Z,-11.21
2018-03-18T02:32:40.078Z,-11.23
2018-03-18T02:33:50.090Z,-11.32
2018-03-18T02:35:00.091Z,-11.32
2018-03-18T02:36:10.093Z,-11.29
2018-03-18T02:37:20.085Z,-11.32
2018-03-18T02:38:29.803Z,-11.41
2018-03-18T02:39:39.798Z,-11.35
2018-03-18T02:40:49.887Z,-11.44
2018-03-18T02:41:59.616Z,-11.5
2018-03-18T02:43:09.349Z,-11.42
2018-03-18T02:44:19.115Z,-11.5
2018-03-18T02:45:29.113Z,-11.48
2018-03-18T02:46:38.572Z,-11.55
2018-03-18T02:47:48.307Z,-11.53
2018-03-18T02:48:58.036Z,-11.53
2018-03-18T02:50:07.756Z,-11.53
2018-03-18T02:51:17.499Z,-11.45
2018-03-18T02:52:27.509Z,-11.45
2018-03-18T02:53:36.974Z,-11.39
2018-03-18T02:54:46.963Z,-11.37
2018-03-18T02:55:56.964Z,-11.48
2018-03-18T02:57:06.699Z,-11.5
2018-03-18T02:58:16.774Z,-11.45
2018-03-18T02:59:26.490Z,-11.63
2018-03-18T03:00:36.217Z,-11.7
2018-03-18T03:01:45.940Z,-11.74
2018-03-18T03:02:55.983Z,-11.76
2018-03-18T03:04:05.712Z,-11.76
2018-03-18T03:05:15.435Z,-11.71
2018-03-18T03:06:25.454Z,-11.77
2018-03-18T03:07:35.443Z,-11.84
2018-03-18T03:08:45.524Z,-11.89
2018-03-18T03:09:55.279Z,-11.92
2018-03-18T03:11:05.003Z,-12.01
2018-03-18T03:12:14.453Z,-12.1
2018-03-18T03:13:24.438Z,-12.18
2018-03-18T03:14:34.426Z,-12.18
2018-03-18T03:15:44.150Z,-12.34
2018-03-18T03:16:53.864Z,-12.4
2018-03-18T03:18:03.841Z,-12.52
2018-03-18T03:19:13.828Z,-12.55
2018-03-18T03:20:23.909Z,-12.56
2018-03-18T03:21:33.621Z,-12.58
2018-03-18T03:22:43.331Z,-12.46
2018-03-18T03:23:53.321Z,-12.46
2018-03-18T03:25:03.318Z,-12.55
2018-03-18T03:26:13.344Z,-12.53
2018-03-18T03:27:23.331Z,-12.48
2018-03-18T03:28:33.318Z,-12.43
2018-03-18T03:29:43.044Z,-12.45
2018-03-18T03:30:53.034Z,-12.45
2018-03-18T03:32:03.120Z,-12.31
2018-03-18T03:33:12.782Z,-12.32
2018-03-18T03:34:22.503Z,-12.18
2018-03-18T03:35:32.220Z,-12.27
2018-03-18T03:36:42.210Z,-12.15
2018-03-18T03:37:52.268Z,-12.03
2018-03-18T03:39:02.250Z,-12.01
2018-03-18T03:40:11.969Z,-12.05
2018-03-18T03:41:21.956Z,-12.01
2018-03-18T03:42:31.679Z,-11.94
2018-03-18T03:43:41.666Z,-11.89
2018-03-18T03:44:51.650Z,-11.97
2018-03-18T03:46:01.647Z,-11.88
2018-03-18T03:47:11.365Z,-11.94
2018-03-18T03:48:21.079Z,-11.97
2018-03-18T03:49:30.790Z,-11.95
2018-03-18T03:50:40.510Z,-11.85
2018-03-18T03:51:50.500Z,-11.81
2018-03-18T03:53:00.210Z,-11.77
2018-03-18T03:54:10.204Z,-11.73
2018-03-18T03:55:20.190Z,-11.6
2018-03-18T03:56:30.173Z,-11.71
2018-03-18T03:57:40.153Z,-11.7
2018-03-18T03:58:50.136Z,-11.63
2018-03-18T04:00:00.144Z,-11.63
2018-03-18T04:03:42.422Z,-11.71
2018-03-18T04:04:52.410Z,-11.74
2018-03-18T04:06:02.399Z,-11.76
2018-03-18T04:07:12.384Z,-11.73
2018-03-18T04:08:22.376Z,-11.84
2018-03-18T04:09:32.094Z,-11.84
2018-03-18T04:10:42.079Z,-11.91
2018-03-18T04:11:52.059Z,-11.78
2018-03-18T04:13:02.040Z,-11.85
2018-03-18T04:14:11.753Z,-11.8
2018-03-18T04:15:21.737Z,-11.63
2018-03-18T04:16:31.722Z,-11.91
2018-03-18T04:17:41.435Z,-11.81
2018-03-18T04:18:50.884Z,-11.81
2018-03-18T04:20:00.881Z,-11.84
2018-03-18T04:21:10.594Z,-11.85
2018-03-18T04:22:20.576Z,-11.91
2018-03-18T04:23:30.564Z,-11.88
2018-03-18T04:24:40.547Z,-11.92
2018-03-18T04:25:50.523Z,-11.87
2018-03-18T04:27:00.519Z,-11.87
2018-03-18T04:28:10.506Z,-11.84
2018-03-18T04:29:20.485Z,-11.94
2018-03-18T04:30:30.199Z,-11.88
2018-03-18T04:31:40.175Z,-12.01
2018-03-18T04:32:50.206Z,-11.94
2018-03-18T04:33:59.710Z,-11.95
2018-03-18T04:35:09.696Z,-12.06
2018-03-18T04:36:19.680Z,-12.27
2018-03-18T04:37:29.662Z,-12.34
2018-03-18T04:38:39.649Z,-12.32
2018-03-18T04:39:49.365Z,-12.45
2018-03-18T04:40:59.348Z,-12.49
2018-03-18T04:42:09.334Z,-12.52
2018-03-18T04:43:19.329Z,-12.52
2018-03-18T04:44:29.315Z,-12.51
2018-03-18T04:45:39.296Z,-12.62
2018-03-18T04:46:49.286Z,-12.72
2018-03-18T04:47:59.049Z,-12.64
2018-03-18T04:49:08.768Z,-12.51
2018-03-18T04:50:18.487Z,-12.49
2018-03-18T04:51:28.483Z,-12.52
2018-03-18T04:52:38.206Z,-12.49
2018-03-18T04:53:48.195Z,-12.42
2018-03-18T04:54:57.918Z,-12.34
2018-03-18T04:56:07.634Z,-12.42
2018-03-18T04:57:17.616Z,-12.27
2018-03-18T04:58:27.600Z,-12.31
2018-03-18T04:59:37.320Z,-12.32
2018-03-18T05:00:47.319Z,-12.31
2018-03-18T05:01:57.136Z,-12.37
2018-03-18T05:03:07.119Z,-12.34
2018-03-18T05:04:17.094Z,-12.49
2018-03-18T05:05:27.093Z,-12.48
2018-03-18T05:06:37.075Z,-12.46
2018-03-18T05:07:47.057Z,-12.62
2018-03-18T05:08:57.045Z,-12.55
2018-03-18T05:10:06.756Z,-12.69
2018-03-18T05:11:16.471Z,-12.63
2018-03-18T05:12:26.456Z,-12.66
2018-03-18T05:13:36.466Z,-12.66
2018-03-18T05:14:45.916Z,-12.69
2018-03-18T05:15:55.914Z,-12.63
2018-03-18T05:17:05.369Z,-12.72
2018-03-18T05:18:15.364Z,-12.72
2018-03-18T05:19:25.180Z,-12.82
2018-03-18T05:20:35.162Z,-12.69
2018-03-18T05:21:45.175Z,-12.85
2018-03-18T05:22:55.164Z,-12.85
2018-03-18T05:24:05.153Z,-12.9
2018-03-18T05:25:14.882Z,-12.88
2018-03-18T05:26:24.875Z,-12.88
2018-03-18T05:27:34.861Z,-12.88
2018-03-18T05:28:44.847Z,-13.09
2018-03-18T05:29:54.832Z,-13.13
2018-03-18T05:31:04.284Z,-13.23
2018-03-18T05:32:14.000Z,-13.26
2018-03-18T05:33:23.991Z,-13.17
2018-03-18T05:34:33.975Z,-13.2
2018-03-18T05:35:43.697Z,-13.12
2018-03-18T05:36:53.691Z,-13.01
2018-03-18T05:38:03.408Z,-12.92
2018-03-18T05:39:13.125Z,-12.88
2018-03-18T05:40:22.842Z,-12.87
2018-03-18T05:41:32.833Z,-12.77
2018-03-18T05:42:42.816Z,-12.82
2018-03-18T05:43:52.797Z,-12.74
2018-03-18T05:45:02.514Z,-12.72
2018-03-18T05:46:12.499Z,-12.64
2018-03-18T05:47:22.483Z,-12.7
2018-03-18T05:48:32.469Z,-12.58
2018-03-18T05:49:42.195Z,-12.48
2018-03-18T05:50:52.189Z,-12.46
2018-03-18T05:52:02.171Z,-12.43
2018-03-18T05:53:12.146Z,-12.45
2018-03-18T05:54:22.128Z,-12.46
2018-03-18T05:55:32.114Z,-12.4
2018-03-18T05:56:42.104Z,-12.31
2018-03-18T05:57:52.084Z,-12.32
2018-03-18T05:59:02.063Z,-12.3
2018-03-18T06:00:11.808Z,-12.34
2018-03-18T06:01:21.809Z,-12.23
2018-03-18T06:02:31.801Z,-12.31
2018-03-18T06:03:41.253Z,-12.19
2018-03-18T06:04:51.241Z,-12.34
2018-03-18T06:06:01.280Z,-12.28
2018-03-18T06:07:11.002Z,-12.3
2018-03-18T06:08:20.714Z,-12.32
2018-03-18T06:09:30.704Z,-12.52
2018-03-18T06:10:40.684Z,-12.48
2018-03-18T06:11:50.451Z,-12.52
2018-03-18T06:13:00.432Z,-12.53
2018-03-18T06:14:10.414Z,-12.64
2018-03-18T06:15:20.415Z,-12.74
2018-03-18T06:16:30.403Z,-12.72
2018-03-18T06:17:40.396Z,-12.74
2018-03-18T06:18:50.381Z,-12.66
2018-03-18T06:20:00.386Z,-12.7
2018-03-18T06:21:10.434Z,-12.84
2018-03-18T06:22:20.437Z,-12.87
2018-03-18T06:23:30.431Z,-12.81
2018-03-18T06:24:40.420Z,-12.76
2018-03-18T06:25:50.180Z,-12.77
2018-03-18T06:26:59.904Z,-12.8
2018-03-18T06:28:09.893Z,-12.72
2018-03-18T06:29:19.910Z,-12.73
2018-03-18T06:30:29.631Z,-12.63
2018-03-18T06:31:39.615Z,-12.72
2018-03-18T06:32:49.641Z,-12.7
2018-03-18T06:33:59.626Z,-12.67
2018-03-18T06:35:09.617Z,-12.69
2018-03-18T06:36:19.599Z,-12.64
2018-03-18T06:37:29.696Z,-12.42
2018-03-18T06:38:39.536Z,-12.37
2018-03-18T06:39:49.249Z,-12.34
2018-03-18T06:40:59.228Z,-12.37
2018-03-18T06:42:09.215Z,-12.32
2018-03-18T06:43:19.202Z,-12.32
2018-03-18T06:44:28.380Z,-12.24
2018-03-18T06:45:38.097Z,-12.27
2018-03-18T06:46:47.818Z,-12.06
2018-03-18T06:47:57.544Z,-12.01
2018-03-18T06:49:07.061Z,-11.84
2018-03-18T06:50:17.041Z,-11.94
2018-03-18T06:51:26.817Z,-11.77
2018-03-18T06:52:36.810Z,-11.78
2018-03-18T06:53:46.524Z,-11.77
2018-03-18T06:54:56.379Z,-11.76
2018-03-18T06:56:06.101Z,-11.78
2018-03-18T06:57:16.084Z,-11.77
2018-03-18T06:58:26.133Z,-11.74
2018-03-18T06:59:35.860Z,-11.71
2018-03-18T07:00:45.849Z,-11.59
2018-03-18T07:01:55.301Z,-11.5
2018-03-18T07:03:05.292Z,-11.5
2018-03-18T07:04:15.277Z,-11.49
2018-03-18T07:05:25.268Z,-11.37
2018-03-18T07:06:34.717Z,-11.29
2018-03-18T07:07:44.705Z,-11.31
2018-03-18T07:08:54.421Z,-11.2
2018-03-18T07:10:03.872Z,-11.21
2018-03-18T07:11:13.592Z,-11.14
2018-03-18T07:12:23.591Z,-11.05
2018-03-18T07:13:33.585Z,-11.13
2018-03-18T07:14:43.302Z,-11.16
2018-03-18T07:15:53.299Z,-11.21
2018-03-18T07:17:03.285Z,-11.37
2018-03-18T07:18:13.006Z,-11.38
2018-03-18T07:19:22.996Z,-11.53
2018-03-18T07:20:32.452Z,-11.76
2018-03-18T07:21:42.541Z,-11.87
2018-03-18T07:22:52.527Z,-11.81
2018-03-18T07:24:02.512Z,-11.95
2018-03-18T07:25:12.498Z,-11.97
2018-03-18T07:26:21.948Z,-11.95
2018-03-18T07:27:31.948Z,-11.89
2018-03-18T07:28:41.399Z,-11.94
2018-03-18T07:29:51.388Z,-11.95
2018-03-18T07:31:01.109Z,-11.95
2018-03-18T07:32:10.826Z,-11.84
2018-03-18T07:33:20.814Z,-11.74
2018-03-18T07:34:30.530Z,-11.78
2018-03-18T07:35:40.254Z,-11.58
2018-03-18T07:36:49.980Z,-11.53
2018-03-18T07:37:59.706Z,-11.59
2018-03-18T07:39:09.586Z,-11.53
2018-03-18T07:40:19.772Z,-11.52
2018-03-18T07:41:29.222Z,-11.48
2018-03-18T07:42:38.939Z,-11.41
2018-03-18T07:43:48.970Z,-11.39
2018-03-18T07:44:58.802Z,-11.48
2018-03-18T07:46:08.520Z,-11.41
2018-03-18T07:47:18.727Z,-11.41
2018-03-18T07:48:28.725Z,-11.34
2018-03-18T07:49:38.711Z,-11.35
2018-03-18T07:50:48.812Z,-11.31
2018-03-18T07:51:58.812Z,-11.29
2018-03-18T07:53:08.538Z,-11.32
2018-03-18T07:54:18.522Z,-11.35
2018-03-18T07:55:28.506Z,-11.37
2018-03-18T07:56:38.230Z,-11.39
2018-03-18T07:57:48.228Z,-11.34
2018-03-18T07:58:58.214Z,-11.28
2018-03-18T08:00:07.669Z,-11.21
2018-03-18T08:01:17.667Z,-11.29
2018-03-18T08:02:27.114Z,-11.29
2018-03-18T08:03:36.837Z,-11.35
2018-03-18T08:04:46.824Z,-11.35
2018-03-18T08:05:56.548Z,-11.2
2018-03-18T08:07:06.270Z,-11.16
2018-03-18T08:08:16.031Z,-11.17
2018-03-18T08:09:26.200Z,-11.11
2018-03-18T08:10:36.204Z,-11
2018-03-18T08:11:46.243Z,-10.95
2018-03-18T08:12:56.235Z,-10.92
2018-03-18T08:14:06.429Z,-10.85
2018-03-18T08:15:16.243Z,-10.77
2018-03-18T08:16:26.237Z,-10.74
2018-03-18T08:17:36.228Z,-11.02
2018-03-18T08:18:45.944Z,-11.05
2018-03-18T08:19:55.666Z,-11.29
2018-03-18T08:21:05.401Z,-11.45
2018-03-18T08:22:15.129Z,-11.59
2018-03-18T08:23:24.854Z,-11.81
2018-03-18T08:24:34.847Z,-12.03
2018-03-18T08:25:44.562Z,-12.08
2018-03-18T08:26:54.272Z,-12.06
2018-03-18T08:28:04.268Z,-12.12
2018-03-18T08:29:13.990Z,-12.03
2018-03-18T08:30:23.984Z,-12.01
2018-03-18T08:31:33.973Z,-11.95
2018-03-18T08:32:43.953Z,-11.84
2018-03-18T08:33:53.936Z,-11.67
2018-03-18T08:35:03.655Z,-11.45
2018-03-18T08:36:13.105Z,-11.32
2018-03-18T08:37:22.826Z,-11.11
2018-03-18T08:38:32.287Z,-10.92
2018-03-18T08:39:42.283Z,-10.92
2018-03-18T08:40:52.006Z,-10.69
2018-03-18T08:42:01.724Z,-10.59
2018-03-18T08:43:11.714Z,-10.6
2018-03-18T08:44:21.704Z,-10.42
2018-03-18T08:45:31.705Z,-10.24
2018-03-18T08:46:41.726Z,-10.1
2018-03-18T08:47:51.764Z,-10.03
2018-03-18T08:49:01.754Z,-10.07
2018-03-18T08:50:11.473Z,-10.06
2018-03-18T08:51:21.215Z,-10.07
2018-03-18T08:52:31.207Z,-9.94
2018-03-18T08:53:41.199Z,-9.84
2018-03-18T08:54:51.226Z,-9.79
2018-03-18T08:56:00.684Z,-9.79
2018-03-18T08:57:10.671Z,-9.7
2018-03-18T08:58:20.389Z,-9.61
2018-03-18T08:59:30.371Z,-9.55
2018-03-18T09:00:40.361Z,-9.46
2018-03-18T09:01:50.350Z,-9.35
2018-03-18T09:03:00.343Z,-9.2
2018-03-18T09:04:10.342Z,-9.3
2018-03-18T09:05:19.810Z,-9.14
2018-03-18T09:06:29.798Z,-9.09
2018-03-18T09:07:39.521Z,-9.04
2018-03-18T09:08:49.246Z,-9.03
2018-03-18T09:09:58.971Z,-8.95
2018-03-18T09:11:08.157Z,-8.86
2018-03-18T09:12:18.149Z,-8.86
2018-03-18T09:13:27.603Z,-8.73
2018-03-18T09:14:37.591Z,-8.62
2018-03-18T09:15:47.584Z,-8.67
2018-03-18T09:16:57.582Z,-8.68
2018-03-18T09:18:07.590Z,-8.54
2018-03-18T09:19:17.312Z,-8.47
2018-03-18T09:20:27.048Z,-8.29
2018-03-18T09:21:36.771Z,-8.26
2018-03-18T09:22:46.758Z,-8.18
2018-03-18T09:23:55.947Z,-8.08
2018-03-18T09:25:05.937Z,-7.98
2018-03-18T09:26:15.657Z,-7.88
2018-03-18T09:27:25.655Z,-7.85
2018-03-18T09:28:35.722Z,-7.73
2018-03-18T09:29:45.714Z,-7.71
2018-03-18T09:30:55.447Z,-7.64
2018-03-18T09:32:05.167Z,-7.5
2018-03-18T09:33:14.899Z,-7.71
2018-03-18T09:34:24.895Z,-7.55
2018-03-18T09:35:34.684Z,-7.52
2018-03-18T09:36:44.796Z,-7.6
2018-03-18T09:37:54.793Z,-7.55
2018-03-18T09:39:04.776Z,-7.5
2018-03-18T09:40:14.783Z,-7.53
2018-03-18T09:41:24.910Z,-7.56
2018-03-18T09:42:34.369Z,-7.46
2018-03-18T09:43:44.450Z,-7.36
2018-03-18T09:44:54.440Z,-7.32
2018-03-18T09:46:04.201Z,-7.35
2018-03-18T09:47:14.207Z,-7.52
2018-03-18T09:48:23.937Z,-7.44
2018-03-18T09:49:33.662Z,-7.34
2018-03-18T09:50:43.376Z,-7.25
2018-03-18T09:51:53.361Z,-7.23
2018-03-18T09:53:03.089Z,-6.99
2018-03-18T09:54:13.077Z,-6.91
2018-03-18T09:55:22.895Z,-6.7
2018-03-18T09:56:32.903Z,-6.56
2018-03-18T09:57:42.363Z,-6.48
2018-03-18T09:58:52.369Z,-6.45
2018-03-18T10:00:02.105Z,-6.42
2018-03-18T10:01:12.101Z,-6.49
2018-03-18T10:02:21.555Z,-6.67
2018-03-18T10:03:31.280Z,-6.71
2018-03-18T10:04:41.012Z,-6.78
2018-03-18T10:05:50.741Z,-6.82
2018-03-18T10:07:00.465Z,-6.79
2018-03-18T10:08:10.221Z,-6.76
2018-03-18T10:09:20.276Z,-6.71
2018-03-18T10:10:30.290Z,-6.61
2018-03-18T10:11:40.280Z,-6.56
2018-03-18T10:12:50.008Z,-6.42
2018-03-18T10:14:00.113Z,-6.33
2018-03-18T10:15:09.871Z,-6.05
2018-03-18T10:16:19.670Z,-6.02
2018-03-18T10:17:29.663Z,-5.89
2018-03-18T10:18:39.384Z,-5.81
2018-03-18T10:19:49.380Z,-5.7
2018-03-18T10:20:59.378Z,-5.48
2018-03-18T10:22:09.213Z,-5.38
2018-03-18T10:23:19.256Z,-5.27
2018-03-18T10:24:28.979Z,-5.19
2018-03-18T10:25:38.519Z,-5.05
2018-03-18T10:26:48.596Z,-4.95
2018-03-18T10:27:58.588Z,-4.83
2018-03-18T10:29:08.043Z,-4.83
2018-03-18T10:30:18.085Z,-4.95
2018-03-18T10:31:28.099Z,-5.17
2018-03-18T10:32:38.174Z,-5.48
2018-03-18T10:33:47.992Z,-5.67
2018-03-18T10:34:57.463Z,-5.89
2018-03-18T10:36:07.192Z,-6.26
2018-03-18T10:37:17.188Z,-6.56
2018-03-18T10:38:27.189Z,-6.78
2018-03-18T10:39:37.329Z,-7.05
2018-03-18T10:40:47.419Z,-7.48
2018-03-18T10:41:57.396Z,-7.62
2018-03-18T10:43:07.467Z,-7.85
2018-03-18T10:44:17.457Z,-8.05
2018-03-18T10:45:27.189Z,-7.96
2018-03-18T10:46:37.183Z,-8.05
2018-03-18T10:47:47.169Z,-8.08
2018-03-18T10:48:56.895Z,-8.03
2018-03-18T10:50:06.621Z,-8.02
2018-03-18T10:51:16.357Z,-7.91
2018-03-18T10:52:26.353Z,-7.73
2018-03-18T10:53:36.462Z,-7.53
2018-03-18T10:54:46.188Z,-7.6
2018-03-18T10:55:55.915Z,-7.52
2018-03-18T10:57:05.376Z,-7.35
2018-03-18T10:58:15.368Z,-7.38
2018-03-18T10:59:25.472Z,-7.41
2018-03-18T11:00:35.197Z,-7.2
2018-03-18T11:01:45.199Z,-7.06
2018-03-18T11:02:55.192Z,-6.92
2018-03-18T11:04:05.187Z,-6.95
2018-03-18T11:05:15.180Z,-6.82
2018-03-18T11:06:24.910Z,-6.68
2018-03-18T11:07:34.968Z,-6.39
2018-03-18T11:08:44.960Z,-6.21
2018-03-18T11:09:54.713Z,-5.91
2018-03-18T11:11:04.716Z,-5.58
2018-03-18T11:12:14.451Z,-5.06
2018-03-18T11:13:24.213Z,-4.51
2018-03-18T11:14:34.212Z,-3.91
2018-03-18T11:15:44.210Z,-3.51
2018-03-18T11:16:54.206Z,-3.19
2018-03-18T11:18:04.219Z,-2.87
2018-03-18T11:19:13.948Z,-2.42
2018-03-18T11:20:23.684Z,-2.11
2018-03-18T11:21:33.682Z,-1.69
2018-03-18T11:22:43.678Z,-1.3
2018-03-18T11:23:53.787Z,-0.74
2018-03-18T11:25:03.492Z,-0.54
2018-03-18T11:26:12.958Z,-0.41
2018-03-18T11:27:22.962Z,-0.05
2018-03-18T11:28:32.697Z,0.08
2018-03-18T11:29:42.166Z,0.19
2018-03-18T11:30:52.167Z,0.16
2018-03-18T11:32:01.683Z,0.3
2018-03-18T11:33:10.887Z,0.63
2018-03-18T11:34:20.351Z,0.7
2018-03-18T11:35:30.359Z,0.76
2018-03-18T11:36:40.362Z,0.73
2018-03-18T11:37:50.367Z,0.85
2018-03-18T11:39:00.373Z,0.66
2018-03-18T11:40:10.113Z,0.73
2018-03-18T11:41:19.854Z,0.85
2018-03-18T11:42:29.644Z,0.89
2018-03-18T11:43:39.461Z,1.06
2018-03-18T11:44:49.481Z,1.03
2018-03-18T11:45:59.220Z,1.31
2018-03-18T11:47:08.961Z,1.5
2018-03-18T11:48:18.965Z,1.84
2018-03-18T11:49:28.710Z,2.14
2018-03-18T11:50:38.567Z,2.07
2018-03-18T11:51:48.585Z,2.37
2018-03-18T11:52:58.592Z,2.55
2018-03-18T11:54:08.340Z,2.61
2018-03-18T11:55:18.088Z,2.93
2018-03-18T11:56:27.868Z,3.33
2018-03-18T11:57:37.875Z,3.94
2018-03-18T11:58:47.347Z,3.76
2018-03-18T11:59:57.462Z,3.77
2018-03-18T12:01:07.233Z,3.96
2018-03-18T12:02:17.367Z,4.25
2018-03-18T12:03:27.379Z,4.32
2018-03-18T12:04:37.396Z,4.98
2018-03-18T12:05:47.410Z,5.22
2018-03-18T12:06:57.157Z,5.05
2018-03-18T12:08:07.187Z,5.02
2018-03-18T12:09:17.199Z,4.98
2018-03-18T12:10:26.949Z,5.15
2018-03-18T12:11:36.970Z,5.22
2018-03-18T12:12:47.052Z,5.43
2018-03-18T12:13:56.532Z,5.34
2018-03-18T12:15:06.279Z,5.72
2018-03-18T12:16:16.023Z,6.57
2018-03-18T12:17:26.047Z,7.31
2018-03-18T12:18:36.057Z,7.85
2018-03-18T12:19:46.072Z,8.27
2018-03-18T12:20:55.819Z,8.36
2018-03-18T12:22:05.295Z,8.52
2018-03-18T12:23:15.040Z,8.71
2018-03-18T12:24:24.791Z,8.87
2018-03-18T12:25:34.812Z,9.16
2018-03-18T12:26:44.568Z,9.44
2018-03-18T12:27:54.581Z,9.9
2018-03-18T12:29:04.338Z,10.21
2018-03-18T12:30:14.085Z,10.57
2018-03-18T12:31:24.115Z,10.71
2018-03-18T12:32:34.126Z,11.04
2018-03-18T12:33:44.144Z,10.75
2018-03-18T12:34:54.246Z,10.23
2018-03-18T12:36:03.730Z,9.85
2018-03-18T12:37:13.753Z,9.42
2018-03-18T12:38:23.778Z,9.63
2018-03-18T12:39:33.585Z,9.88
2018-03-18T12:40:43.627Z,9.95
2018-03-18T12:41:53.383Z,10.12
2018-03-18T12:43:03.402Z,9.63
2018-03-18T12:44:12.882Z,8.77
2018-03-18T12:45:22.894Z,8.18
2018-03-18T12:46:32.956Z,8.24
2018-03-18T12:47:42.768Z,7.93
2018-03-18T12:48:52.786Z,8.02
2018-03-18T12:50:02.533Z,7.99
2018-03-18T12:51:11.480Z,7.81
2018-03-18T12:52:21.235Z,7.69
2018-03-18T12:53:31.251Z,7.58
2018-03-18T12:54:41.387Z,7.32
2018-03-18T12:55:50.872Z,7.39
2018-03-18T12:57:00.617Z,7.67
2018-03-18T12:58:10.104Z,7.7
2018-03-18T12:59:19.853Z,8.05
2018-03-18T13:00:29.608Z,9
2018-03-18T13:01:39.633Z,9.59
2018-03-18T13:02:49.648Z,10.12
2018-03-18T13:03:59.664Z,10.61
2018-03-18T13:05:09.414Z,11.23
2018-03-18T13:06:19.428Z,11.6
2018-03-18T13:07:29.458Z,11.76
2018-03-18T13:08:39.481Z,11.96
2018-03-18T13:09:49.498Z,12.43
2018-03-18T13:10:59.250Z,12.18
2018-03-18T13:12:09.015Z,12.17
2018-03-18T13:13:19.060Z,12.25
2018-03-18T13:14:29.087Z,12.33
2018-03-18T13:15:39.119Z,12.57
2018-03-18T13:16:49.240Z,11.8
2018-03-18T13:17:59.085Z,11.04
2018-03-18T13:19:08.846Z,10.48
2018-03-18T13:20:18.914Z,9.66
2018-03-18T13:21:28.936Z,9.36
2018-03-18T13:22:39.059Z,9.99
2018-03-18T13:23:48.545Z,9.42
2018-03-18T13:24:58.775Z,8.99
2018-03-18T13:26:08.527Z,9.31
2018-03-18T13:27:18.540Z,9.02
2018-03-18T13:28:28.565Z,8.66
2018-03-18T13:29:38.584Z,8.2
2018-03-18T13:30:48.594Z,7.74
2018-03-18T13:31:58.345Z,7.04
2018-03-18T13:33:08.358Z,6.54
2018-03-18T13:34:18.109Z,5.95
2018-03-18T13:35:28.119Z,5.74
2018-03-18T13:36:38.130Z,5.26
2018-03-18T13:37:48.141Z,4.57
2018-03-18T13:38:58.194Z,4.32
2018-03-18T13:40:07.767Z,3.77
2018-03-18T13:41:17.513Z,3.27
2018-03-18T13:42:27.517Z,2.91
2018-03-18T13:43:36.986Z,2.65
2018-03-18T13:44:46.991Z,2.19
2018-03-18T13:45:57.049Z,1.98
2018-03-18T13:47:07.090Z,1.58
2018-03-18T13:48:16.927Z,1.48
2018-03-18T13:49:26.396Z,1.16
2018-03-18T13:50:36.138Z,1.03
2018-03-18T13:51:46.148Z,0.73
2018-03-18T13:52:55.887Z,0.66
2018-03-18T13:54:05.884Z,0.64
2018-03-18T13:55:15.897Z,0.48
2018-03-18T13:56:25.648Z,0.15
2018-03-18T13:57:35.660Z,0.01
2018-03-18T13:58:45.407Z,-0.21
2018-03-18T13:59:55.139Z,-0.28
2018-03-18T14:01:05.143Z,-0.27
2018-03-18T14:02:15.162Z,-0.31
2018-03-18T14:03:24.899Z,-0.38
2018-03-18T14:04:34.903Z,-0.35
2018-03-18T14:05:45.005Z,-0.36
2018-03-18T14:06:54.748Z,-0.3
2018-03-18T14:08:04.477Z,-0.24
2018-03-18T14:09:14.208Z,-0.28
2018-03-18T14:10:24.204Z,-0.18
2018-03-18T14:11:34.206Z,-0.12
2018-03-18T14:12:44.215Z,-0.05
2018-03-18T14:13:53.414Z,0.08
2018-03-18T14:15:03.142Z,0.12
2018-03-18T14:16:12.605Z,0.51
2018-03-18T14:17:22.386Z,0.68
2018-03-18T14:18:32.390Z,0.84
2018-03-18T14:19:42.419Z,0.82
2018-03-18T14:20:52.210Z,0.52
2018-03-18T14:22:01.950Z,0.36
2018-03-18T14:23:12.027Z,0.13
2018-03-18T14:24:22.036Z,0.12
2018-03-18T14:25:31.769Z,0.23
2018-03-18T14:26:41.529Z,0.12
2018-03-18T14:27:51.532Z,0.44
2018-03-18T14:29:01.269Z,0.39
2018-03-18T14:30:11.273Z,0.55
2018-03-18T14:31:21.011Z,0.7
2018-03-18T14:32:30.842Z,0.73
2018-03-18T14:33:40.842Z,0.91
2018-03-18T14:34:50.842Z,0.66
2018-03-18T14:36:00.568Z,0.56
2018-03-18T14:37:10.300Z,0.52
2018-03-18T14:38:20.624Z,0.61
2018-03-18T14:39:30.352Z,0.68
2018-03-18T14:40:40.366Z,1
2018-03-18T14:41:50.371Z,1.06
2018-03-18T14:43:00.100Z,1.18
2018-03-18T14:44:09.827Z,1.42
2018-03-18T14:45:19.556Z,1.58
2018-03-18T14:46:29.559Z,1.68
2018-03-18T14:47:39.302Z,1.92
2018-03-18T14:48:49.313Z,1.95
2018-03-18T14:49:58.774Z,1.95
2018-03-18T14:51:08.781Z,2.03
2018-03-18T14:52:18.516Z,2.19
2018-03-18T14:53:28.512Z,2.28